Time;durP1;ratioP1;P1;durP2;ratioP2;P2;SDS_P1;SDS_P2;PMS_P1;PMS_P2;Temp;Humidity;BMP_temperature;BMP_pressure;BME280_temperature;BME280_humidity;BME280_pressure;Samples;Min_cycle;Max_cycle;Signal;HPM_P1;HPM_P2
2021/11/06 00:00:41;;;;;;;10.18;2.30;;;7.10;96.80;;;;;;4964893;28;20157;-74
2021/11/06 00:03:06;;;;;;;9.85;2.38;;;7.10;96.80;;;;;;4967333;28;20088;-74
2021/11/06 00:05:33;;;;;;;7.75;2.30;;;7.00;96.90;;;;;;4959487;28;20035;-75
2021/11/06 00:07:58;;;;;;;6.95;2.10;;;7.00;97.10;;;;;;4964085;28;20340;-75
2021/11/06 00:10:25;;;;;;;17.17;2.65;;;6.90;96.90;;;;;;4942881;28;20079;-75
2021/11/06 00:12:50;;;;;;;12.18;2.17;;;6.80;97.30;;;;;;4949178;28;20069;-76
2021/11/06 00:15:16;;;;;;;13.85;2.22;;;6.80;97.40;;;;;;4963926;28;20052;-76
2021/11/06 00:17:42;;;;;;;10.60;2.30;;;6.80;97.40;;;;;;4960794;28;20107;-75
2021/11/06 00:20:09;;;;;;;8.45;2.30;;;6.80;97.50;;;;;;4962343;28;20046;-76
2021/11/06 00:22:35;;;;;;;11.60;2.42;;;6.80;97.60;;;;;;4963843;28;20121;-76
2021/11/06 00:25:02;;;;;;;13.65;2.38;;;6.70;97.60;;;;;;4956648;28;20086;-76
2021/11/06 00:27:29;;;;;;;12.18;2.50;;;6.70;97.70;;;;;;4946882;28;20032;-76
2021/11/06 00:29:55;;;;;;;8.82;1.92;;;6.70;97.80;;;;;;4947853;28;20458;-76
2021/11/06 00:32:21;;;;;;;8.55;2.58;;;6.70;97.80;;;;;;4949767;28;20030;-75
2021/11/06 00:34:46;;;;;;;9.82;2.42;;;6.70;97.80;;;;;;4947907;28;20062;-75
2021/11/06 00:37:12;;;;;;;8.95;2.33;;;6.70;97.80;;;;;;4965419;28;20027;-75
2021/11/06 00:39:37;;;;;;;11.82;2.50;;;6.70;97.80;;;;;;4954305;28;20033;-75
2021/11/06 00:42:03;;;;;;;10.15;2.67;;;6.70;97.90;;;;;;4962204;28;20086;-75
2021/11/06 00:44:29;;;;;;;12.05;2.70;;;6.70;97.80;;;;;;4944450;28;20114;-75
2021/11/06 00:46:54;;;;;;;8.45;2.60;;;6.80;97.70;;;;;;4962422;28;20190;-75
2021/11/06 00:49:20;;;;;;;9.50;2.38;;;6.90;97.60;;;;;;4954464;28;20126;-75
2021/11/06 00:51:45;;;;;;;8.65;2.92;;;6.90;97.50;;;;;;4946530;28;20035;-75
2021/11/06 00:54:11;;;;;;;5.47;2.25;;;6.90;97.40;;;;;;4957715;28;20110;-75
2021/11/06 00:56:36;;;;;;;7.78;2.13;;;7.00;97.40;;;;;;4960772;28;20038;-74
2021/11/06 00:59:02;;;;;;;8.80;2.72;;;7.00;97.30;;;;;;4961556;28;20547;-75
2021/11/06 01:01:28;;;;;;;7.68;2.28;;;7.00;97.30;;;;;;4958017;28;20070;-75
2021/11/06 01:03:54;;;;;;;8.02;2.30;;;7.00;97.10;;;;;;4954383;28;20039;-75
2021/11/06 01:06:19;;;;;;;8.98;2.55;;;7.00;97.10;;;;;;4956899;28;20337;-75
2021/11/06 01:08:45;;;;;;;6.47;2.20;;;7.00;97.00;;;;;;4948222;28;20030;-74
2021/11/06 01:11:11;;;;;;;7.97;2.00;;;7.00;97.10;;;;;;4957382;28;20365;-76
2021/11/06 01:13:37;;;;;;;7.90;2.10;;;7.10;97.00;;;;;;4943812;28;20553;-75
2021/11/06 01:16:03;;;;;;;6.05;2.08;;;7.10;97.00;;;;;;4966326;28;20445;-74
2021/11/06 01:18:29;;;;;;;8.63;1.85;;;7.00;97.00;;;;;;4955812;28;20134;-75
2021/11/06 01:20:55;;;;;;;6.40;2.30;;;7.00;97.10;;;;;;4958647;28;20118;-74
2021/11/06 01:23:20;;;;;;;10.25;2.45;;;7.00;97.10;;;;;;4962978;28;20512;-75
2021/11/06 01:25:47;;;;;;;9.20;2.28;;;7.00;97.10;;;;;;4946420;28;20041;-75
2021/11/06 01:28:12;;;;;;;5.03;1.90;;;7.00;97.10;;;;;;4964744;28;20180;-75
2021/11/06 01:30:38;;;;;;;10.45;2.00;;;7.00;97.00;;;;;;4959871;28;20600;-75
2021/11/06 01:33:05;;;;;;;7.10;1.50;;;7.10;97.00;;;;;;4954687;28;20322;-75
2021/11/06 01:35:31;;;;;;;8.30;2.15;;;7.00;96.90;;;;;;4961327;28;20083;-76
2021/11/06 01:37:59;;;;;;;6.22;2.10;;;7.00;96.90;;;;;;4959684;28;20094;-76
2021/11/06 01:40:26;;;;;;;5.30;2.05;;;7.00;97.00;;;;;;4940999;28;20167;-75
2021/11/06 01:42:52;;;;;;;12.20;2.38;;;7.00;96.90;;;;;;4949270;28;20047;-75
2021/11/06 01:45:20;;;;;;;9.95;2.08;;;6.90;97.00;;;;;;4961147;28;20019;-75
2021/11/06 01:47:46;;;;;;;8.50;2.13;;;6.90;97.10;;;;;;4962248;28;20166;-74
2021/11/06 01:50:13;;;;;;;5.65;2.10;;;6.90;97.10;;;;;;4956299;28;20114;-76
2021/11/06 01:52:39;;;;;;;9.55;2.22;;;6.90;97.10;;;;;;4936037;28;20035;-75
2021/11/06 01:55:05;;;;;;;9.65;2.42;;;6.80;97.10;;;;;;4935826;28;20041;-75
2021/11/06 01:57:32;;;;;;;7.35;1.85;;;6.80;97.30;;;;;;4961471;28;20039;-75
2021/11/06 01:59:57;;;;;;;8.45;1.83;;;6.70;97.30;;;;;;4957931;28;20034;-75
2021/11/06 02:02:23;;;;;;;11.05;2.10;;;6.70;97.30;;;;;;4942473;28;20420;-75
2021/11/06 02:04:49;;;;;;;5.22;1.90;;;6.70;97.40;;;;;;4940057;28;20408;-75
2021/11/06 02:07:14;;;;;;;7.18;2.22;;;6.70;97.50;;;;;;4965782;28;20042;-75
2021/11/06 02:09:40;;;;;;;9.20;2.05;;;6.60;97.50;;;;;;4952706;28;20480;-75
2021/11/06 02:12:08;;;;;;;5.22;2.08;;;6.70;97.60;;;;;;4960425;28;20034;-75
2021/11/06 02:14:34;;;;;;;11.35;2.03;;;6.70;97.60;;;;;;4943059;28;20044;-75
2021/11/06 02:16:59;;;;;;;9.02;2.22;;;6.70;97.60;;;;;;4951159;28;20552;-75
2021/11/06 02:19:27;;;;;;;5.18;2.20;;;6.70;97.50;;;;;;4959932;28;20492;-76
2021/11/06 02:21:54;;;;;;;8.93;2.33;;;6.70;97.50;;;;;;4959856;28;20102;-76
2021/11/06 02:24:20;;;;;;;8.85;2.10;;;6.70;97.40;;;;;;4954864;28;20469;-74
2021/11/06 02:26:47;;;;;;;10.20;2.35;;;6.80;97.40;;;;;;4963468;28;20121;-75
2021/11/06 02:29:14;;;;;;;8.38;2.00;;;6.70;97.40;;;;;;4948763;28;20042;-75
2021/11/06 02:31:40;;;;;;;10.55;2.50;;;6.80;97.30;;;;;;4973680;28;20055;-75
2021/11/06 02:34:06;;;;;;;6.72;2.35;;;6.70;97.30;;;;;;4962391;28;20413;-75
2021/11/06 02:36:32;;;;;;;8.30;2.70;;;6.60;97.30;;;;;;4966587;28;20065;-75
2021/11/06 02:38:58;;;;;;;6.78;2.40;;;6.60;97.40;;;;;;4994435;22;20078;-79
2021/11/06 02:41:24;;;;;;;9.18;2.40;;;6.60;97.40;;;;;;4983376;28;20395;-79
2021/11/06 02:43:50;;;;;;;7.90;2.30;;;6.60;97.60;;;;;;4970779;28;20026;-79
2021/11/06 02:46:15;;;;;;;7.97;2.35;;;6.60;97.60;;;;;;4986977;28;20065;-79
2021/11/06 02:48:41;;;;;;;8.80;2.42;;;6.50;97.60;;;;;;4985594;28;20031;-79
2021/11/06 02:51:06;;;;;;;6.30;2.30;;;6.50;97.70;;;;;;4966099;28;20031;-79
2021/11/06 02:53:32;;;;;;;12.15;2.72;;;6.50;97.80;;;;;;4966504;28;20019;-79
2021/11/06 02:55:57;;;;;;;14.05;2.70;;;6.40;97.90;;;;;;4970513;28;20031;-79
2021/11/06 02:58:23;;;;;;;10.40;3.00;;;6.40;97.80;;;;;;4972333;28;20026;-79
2021/11/06 03:00:48;;;;;;;10.32;2.67;;;6.40;97.90;;;;;;4968468;28;20215;-79
2021/11/06 03:03:14;;;;;;;5.75;2.92;;;6.40;98.00;;;;;;4966823;28;20030;-79
2021/11/06 03:05:39;;;;;;;6.65;2.85;;;6.40;98.00;;;;;;4962530;28;20027;-78
2021/11/06 03:08:05;;;;;;;17.65;3.13;;;6.40;98.00;;;;;;4968068;28;20404;-79
2021/11/06 03:10:31;;;;;;;10.85;2.60;;;6.40;98.00;;;;;;4955142;28;20023;-79
2021/11/06 03:12:57;;;;;;;8.32;2.47;;;6.40;97.90;;;;;;4954339;28;20026;-79
2021/11/06 03:15:22;;;;;;;10.50;3.30;;;6.40;98.00;;;;;;4964830;28;20111;-79
2021/11/06 03:17:48;;;;;;;5.38;3.00;;;6.30;97.90;;;;;;4963100;28;20109;-79
2021/11/06 03:20:15;;;;;;;5.60;2.20;;;6.30;98.00;;;;;;4965257;28;20047;-79
2021/11/06 03:22:41;;;;;;;9.25;3.10;;;6.30;98.00;;;;;;4955215;28;20487;-79
2021/11/06 03:25:07;;;;;;;5.40;2.55;;;6.30;98.00;;;;;;4953189;28;20129;-79
2021/11/06 03:27:33;;;;;;;14.30;3.10;;;6.40;98.00;;;;;;4968711;28;20027;-79
2021/11/06 03:30:00;;;;;;;6.28;2.53;;;6.40;98.00;;;;;;4956452;28;20099;-79
2021/11/06 03:32:25;;;;;;;7.93;3.13;;;6.40;98.00;;;;;;4967986;28;20539;-79
2021/11/06 03:34:51;;;;;;;9.63;2.58;;;6.40;98.00;;;;;;4965404;28;20035;-79
2021/11/06 03:37:16;;;;;;;9.77;3.15;;;6.50;97.90;;;;;;4961337;28;20034;-79
2021/11/06 03:39:42;;;;;;;14.50;3.30;;;6.50;97.80;;;;;;4968785;28;20572;-79
2021/11/06 03:42:08;;;;;;;10.05;3.17;;;6.60;97.80;;;;;;4972550;28;20027;-79
2021/11/06 03:44:34;;;;;;;6.63;2.72;;;6.60;97.70;;;;;;4964114;28;20034;-79
2021/11/06 03:47:00;;;;;;;7.88;3.30;;;6.60;97.70;;;;;;4952532;28;20034;-80
2021/11/06 03:49:26;;;;;;;7.43;3.05;;;6.60;97.60;;;;;;4959192;28;20038;-79
2021/11/06 03:51:52;;;;;;;10.18;3.15;;;6.60;97.60;;;;;;4964198;28;20026;-79
2021/11/06 03:54:17;;;;;;;8.40;3.60;;;6.60;97.60;;;;;;4948452;28;20094;-79
2021/11/06 03:56:43;;;;;;;7.60;3.10;;;6.60;97.60;;;;;;4957488;28;20535;-79
2021/11/06 03:59:08;;;;;;;8.07;3.28;;;6.60;97.50;;;;;;4970791;28;20039;-79
2021/11/06 04:01:34;;;;;;;9.45;3.17;;;6.60;97.50;;;;;;4955966;28;20026;-80
2021/11/06 04:04:00;;;;;;;8.25;3.38;;;6.60;97.50;;;;;;4958562;28;20397;-79
2021/11/06 04:06:25;;;;;;;8.68;3.45;;;6.60;97.40;;;;;;4959710;28;20133;-80
2021/11/06 04:08:51;;;;;;;8.07;3.42;;;6.60;97.40;;;;;;4958500;28;20436;-79
2021/11/06 04:11:18;;;;;;;10.50;3.08;;;6.60;97.30;;;;;;4971578;28;20045;-78
2021/11/06 04:13:43;;;;;;;11.15;3.22;;;6.70;97.30;;;;;;4950001;28;20026;-77
2021/11/06 04:16:09;;;;;;;7.20;3.38;;;6.70;97.30;;;;;;4964125;28;20029;-78
2021/11/06 04:18:35;;;;;;;10.07;3.45;;;6.70;97.30;;;;;;4962948;28;20030;-77
2021/11/06 04:21:01;;;;;;;6.68;3.28;;;6.70;97.30;;;;;;4965225;28;20706;-77
2021/11/06 04:23:26;;;;;;;7.22;4.00;;;6.80;97.30;;;;;;4963881;28;20053;-77
2021/11/06 04:25:52;;;;;;;8.85;4.05;;;6.80;97.10;;;;;;4963815;28;20089;-78
2021/11/06 04:28:17;;;;;;;5.95;3.50;;;6.80;97.10;;;;;;4948687;28;20043;-77
2021/11/06 04:30:43;;;;;;;8.50;3.78;;;6.80;97.20;;;;;;4968274;28;20034;-77
2021/11/06 04:33:08;;;;;;;9.88;4.40;;;6.80;97.40;;;;;;4965424;28;20227;-77
2021/11/06 04:35:34;;;;;;;7.63;3.88;;;6.80;97.50;;;;;;4968351;28;20035;-80
2021/11/06 04:37:59;;;;;;;19.45;4.40;;;6.80;97.70;;;;;;4973834;28;20169;-80
2021/11/06 04:40:25;;;;;;;15.95;4.75;;;6.80;97.70;;;;;;4950940;28;20063;-80
2021/11/06 04:42:50;;;;;;;11.15;4.70;;;6.80;97.80;;;;;;4950133;28;20035;-80
2021/11/06 04:45:16;;;;;;;13.93;4.45;;;6.80;97.90;;;;;;4951864;28;20361;-80
2021/11/06 04:47:42;;;;;;;15.18;4.68;;;6.80;97.80;;;;;;4971127;28;20495;-80
2021/11/06 04:50:10;;;;;;;9.27;4.28;;;6.80;97.80;;;;;;4972792;28;20020;-80
2021/11/06 04:52:36;;;;;;;9.75;5.00;;;6.70;97.80;;;;;;4964731;28;20038;-79
2021/11/06 04:55:06;;;;;;;8.02;4.60;;;6.70;97.80;;;;;;4973768;28;20023;-80
2021/11/06 04:57:31;;;;;;;12.93;4.80;;;6.70;97.70;;;;;;4972110;28;20022;-80
2021/11/06 04:59:57;;;;;;;10.63;5.20;;;6.70;97.70;;;;;;4964660;28;20528;-80
2021/11/06 05:02:23;;;;;;;8.77;4.45;;;6.70;97.70;;;;;;4971680;28;20019;-80
2021/11/06 05:04:48;;;;;;;8.60;5.00;;;6.60;97.70;;;;;;4970031;28;20035;-78
2021/11/06 05:07:15;;;;;;;10.65;5.13;;;6.60;97.70;;;;;;4951837;28;20468;-77
2021/11/06 05:09:43;;;;;;;12.40;4.90;;;6.60;97.70;;;;;;4966362;28;20030;-77
2021/11/06 05:12:09;;;;;;;9.02;5.15;;;6.60;97.70;;;;;;4967783;28;20074;-77
2021/11/06 05:14:35;;;;;;;10.45;4.82;;;6.70;97.70;;;;;;4973522;28;20636;-77
2021/11/06 05:17:01;;;;;;;12.45;5.35;;;6.60;97.60;;;;;;4961717;28;20023;-78
2021/11/06 05:19:26;;;;;;;11.63;5.35;;;6.60;97.60;;;;;;4965440;28;20049;-79
2021/11/06 05:21:52;;;;;;;13.23;5.40;;;6.60;97.70;;;;;;4967896;28;20113;-79
2021/11/06 05:24:17;;;;;;;12.40;5.40;;;6.60;97.70;;;;;;4953079;28;20026;-79
2021/11/06 05:26:43;;;;;;;14.68;5.80;;;6.60;97.60;;;;;;4956202;28;20104;-79
2021/11/06 05:29:09;;;;;;;10.95;5.47;;;6.60;97.60;;;;;;4968374;28;20031;-79
2021/11/06 05:31:37;;;;;;;16.10;5.95;;;6.60;97.60;;;;;;4951113;28;20053;-77
2021/11/06 05:34:03;;;;;;;13.80;6.85;;;6.60;97.60;;;;;;4961375;28;20050;-79
2021/11/06 05:36:29;;;;;;;11.05;5.82;;;6.60;97.60;;;;;;4967732;28;20027;-79
2021/11/06 05:38:55;;;;;;;19.60;6.63;;;6.60;97.60;;;;;;4963643;28;21434;-79
2021/11/06 05:41:21;;;;;;;9.13;6.05;;;6.50;97.60;;;;;;4963654;28;20031;-78
2021/11/06 05:43:46;;;;;;;12.70;6.03;;;6.50;97.70;;;;;;4969640;28;20070;-79
2021/11/06 05:46:12;;;;;;;11.63;6.85;;;6.60;97.60;;;;;;4968868;28;20043;-82
2021/11/06 05:48:38;;;;;;;11.65;6.88;;;6.50;97.60;;;;;;4967980;28;20049;-82
2021/11/06 05:51:04;;;;;;;12.48;7.10;;;6.60;97.60;;;;;;4961152;28;20075;-79
2021/11/06 05:53:29;;;;;;;14.43;7.72;;;6.60;97.60;;;;;;4954537;28;20027;-79
2021/11/06 05:55:55;;;;;;;19.83;6.95;;;6.60;97.50;;;;;;4958460;28;20030;-79
2021/11/06 05:58:20;;;;;;;15.55;7.50;;;6.50;97.60;;;;;;4957585;28;20191;-79
2021/11/06 06:00:46;;;;;;;15.00;7.03;;;6.50;97.70;;;;;;4959604;28;20097;-80
2021/11/06 06:03:11;;;;;;;12.43;6.65;;;6.40;97.70;;;;;;4959981;28;20512;-80
2021/11/06 06:05:37;;;;;;;15.35;8.23;;;6.50;97.70;;;;;;4963481;28;20662;-80
2021/11/06 06:08:03;;;;;;;18.02;7.82;;;6.50;97.80;;;;;;4967992;28;20027;-80
2021/11/06 06:10:28;;;;;;;13.02;8.35;;;6.50;97.80;;;;;;4969858;28;20042;-80
2021/11/06 06:12:54;;;;;;;17.52;9.07;;;6.50;97.80;;;;;;4954025;28;20031;-79
2021/11/06 06:15:20;;;;;;;17.98;8.50;;;6.50;97.80;;;;;;4966162;28;20037;-80
2021/11/06 06:17:47;;;;;;;18.42;9.13;;;6.60;97.80;;;;;;4960990;28;20030;-81
2021/11/06 06:20:13;;;;;;;18.20;8.48;;;6.60;97.80;;;;;;4965377;28;20114;-78
2021/11/06 06:22:39;;;;;;;14.80;9.18;;;6.60;97.70;;;;;;4953051;28;20097;-80
2021/11/06 06:25:06;;;;;;;18.30;9.02;;;6.60;97.60;;;;;;4964339;28;20034;-80
2021/11/06 06:27:31;;;;;;;23.45;10.00;;;6.70;97.60;;;;;;4963667;28;20034;-80
2021/11/06 06:29:57;;;;;;;16.67;9.95;;;6.80;97.50;;;;;;4955382;28;20034;-80
2021/11/06 06:32:23;;;;;;;17.83;9.88;;;6.70;97.50;;;;;;4943856;28;20033;-80
2021/11/06 06:34:48;;;;;;;18.55;10.00;;;6.80;97.40;;;;;;4962835;28;20099;-80
2021/11/06 06:37:14;;;;;;;14.63;10.23;;;6.80;97.30;;;;;;4969929;28;20031;-80
2021/11/06 06:39:40;;;;;;;19.60;9.65;;;6.80;97.20;;;;;;4967596;28;20039;-80
2021/11/06 06:42:06;;;;;;;17.50;9.95;;;6.90;97.20;;;;;;4964367;28;20457;-79
2021/11/06 06:44:32;;;;;;;19.30;10.82;;;6.90;97.10;;;;;;4955112;28;20090;-80
2021/11/06 06:46:58;;;;;;;20.17;11.07;;;6.90;97.00;;;;;;4980654;28;20534;-80
2021/11/06 06:49:23;;;;;;;19.00;10.90;;;7.00;97.00;;;;;;4959225;28;20437;-79
2021/11/06 06:51:49;;;;;;;17.70;11.25;;;7.00;97.00;;;;;;4967467;28;20492;-80
2021/11/06 06:54:15;;;;;;;19.95;11.15;;;7.00;96.90;;;;;;4963817;28;20042;-80
2021/11/06 06:56:40;;;;;;;24.42;11.45;;;7.00;96.90;;;;;;4964373;28;20078;-80
2021/11/06 06:59:06;;;;;;;22.83;12.55;;;7.10;96.90;;;;;;4964469;28;20034;-80
2021/11/06 07:01:31;;;;;;;21.63;13.02;;;7.10;96.90;;;;;;4966550;28;20034;-80
2021/11/06 07:03:57;;;;;;;20.17;13.15;;;7.10;96.90;;;;;;4951491;28;20038;-79
2021/11/06 07:06:23;;;;;;;17.23;13.07;;;7.20;96.80;;;;;;4967991;28;20501;-80
2021/11/06 07:08:48;;;;;;;23.85;12.57;;;7.10;96.80;;;;;;4966345;28;20340;-80
2021/11/06 07:11:16;;;;;;;19.92;12.98;;;7.20;96.80;;;;;;4971364;28;20030;-80
2021/11/06 07:13:41;;;;;;;26.13;14.00;;;7.20;96.70;;;;;;4950271;28;20031;-81
2021/11/06 07:16:07;;;;;;;19.98;13.30;;;7.20;96.70;;;;;;4965851;28;20018;-81
2021/11/06 07:18:33;;;;;;;24.48;14.00;;;7.20;96.80;;;;;;4959057;28;20102;-81
2021/11/06 07:20:58;;;;;;;25.00;15.13;;;7.30;96.70;;;;;;4956434;28;20031;-83
2021/11/06 07:23:23;;;;;;;20.83;15.27;;;7.30;96.60;;;;;;4966480;28;20031;-82
2021/11/06 07:25:49;;;;;;;26.85;15.70;;;7.30;96.60;;;;;;4969030;28;20542;-82
2021/11/06 07:28:15;;;;;;;23.55;14.80;;;7.30;96.50;;;;;;4952420;28;20398;-82
2021/11/06 07:30:40;;;;;;;21.88;14.57;;;7.30;96.60;;;;;;4953820;28;20054;-80
2021/11/06 07:33:06;;;;;;;27.33;16.63;;;7.30;96.50;;;;;;4952083;28;20026;-82
2021/11/06 07:35:31;;;;;;;25.67;15.80;;;7.40;96.50;;;;;;4964141;28;20055;-82
2021/11/06 07:37:58;;;;;;;29.35;16.02;;;7.40;96.40;;;;;;4974488;28;20035;-81
2021/11/06 07:40:24;;;;;;;28.80;16.05;;;7.50;96.50;;;;;;4972073;28;20031;-82
2021/11/06 07:42:50;;;;;;;25.00;15.95;;;7.50;96.50;;;;;;4959565;28;20045;-81
2021/11/06 07:45:18;;;;;;;26.23;16.90;;;7.50;96.50;;;;;;4955819;28;20027;-82
2021/11/06 07:47:43;;;;;;;26.95;17.08;;;7.50;96.50;;;;;;4971491;28;20031;-83
2021/11/06 07:50:10;;;;;;;24.17;16.70;;;7.50;96.40;;;;;;4959036;28;20025;-79
2021/11/06 07:52:36;;;;;;;27.35;17.73;;;7.50;96.40;;;;;;4958882;28;20056;-81
2021/11/06 07:55:03;;;;;;;26.30;16.27;;;7.60;96.50;;;;;;4966467;28;20027;-81
2021/11/06 07:57:29;;;;;;;27.60;17.02;;;7.60;96.40;;;;;;4976013;28;20015;-81
2021/11/06 07:59:55;;;;;;;28.30;16.88;;;7.60;96.40;;;;;;4967154;28;20042;-80
2021/11/06 08:02:21;;;;;;;27.05;17.40;;;7.60;96.20;;;;;;4972567;28;20210;-80
2021/11/06 08:04:47;;;;;;;22.88;16.48;;;7.70;96.40;;;;;;4967824;28;20396;-80
2021/11/06 08:07:13;;;;;;;25.45;16.92;;;7.70;96.30;;;;;;4968322;28;20407;-80
2021/11/06 08:09:38;;;;;;;28.92;17.33;;;7.70;96.30;;;;;;4967942;28;20042;-81
2021/11/06 08:12:04;;;;;;;25.75;17.83;;;7.70;96.10;;;;;;4969904;28;20620;-83
2021/11/06 08:14:29;;;;;;;24.20;17.05;;;7.80;96.00;;;;;;4953304;28;20043;-81
2021/11/06 08:16:59;;;;;;;27.83;17.25;;;7.80;96.00;;;;;;4976004;28;20085;-81
2021/11/06 08:19:25;;;;;;;25.47;16.67;;;7.80;95.80;;;;;;4948750;28;20031;-80
2021/11/06 08:21:52;;;;;;;27.92;15.27;;;7.90;95.80;;;;;;4959703;28;20030;-82
2021/11/06 08:24:21;;;;;;;27.52;17.70;;;7.90;95.80;;;;;;4954898;28;20064;-81
2021/11/06 08:26:49;;;;;;;26.40;16.85;;;7.90;95.70;;;;;;4967817;28;20042;-82
2021/11/06 08:29:15;;;;;;;25.17;16.77;;;7.90;95.90;;;;;;4971104;28;20026;-81
2021/11/06 08:31:42;;;;;;;24.98;17.05;;;7.80;95.80;;;;;;4976184;28;20111;-82
2021/11/06 08:34:07;;;;;;;25.98;17.10;;;7.80;95.80;;;;;;4969754;28;20027;-82
2021/11/06 08:36:33;;;;;;;22.67;17.73;;;7.90;95.80;;;;;;4965657;28;20105;-81
2021/11/06 08:38:59;;;;;;;24.95;16.90;;;7.90;95.70;;;;;;4997877;23;20042;-76
2021/11/06 08:41:25;;;;;;;21.52;17.05;;;8.00;95.80;;;;;;4950835;28;20416;-75
2021/11/06 08:43:51;;;;;;;25.55;16.92;;;8.00;95.60;;;;;;4964372;28;20016;-76
2021/11/06 08:46:16;;;;;;;22.70;16.00;;;8.10;95.60;;;;;;4968002;28;20030;-75
2021/11/06 08:48:42;;;;;;;25.48;16.88;;;8.10;95.10;;;;;;4947334;28;20042;-78
2021/11/06 08:51:07;;;;;;;28.10;17.88;;;8.10;95.20;;;;;;4973174;28;20046;-76
2021/11/06 08:53:33;;;;;;;27.65;17.25;;;8.10;95.20;;;;;;4959674;28;20367;-77
2021/11/06 08:55:58;;;;;;;24.23;17.95;;;8.20;95.20;;;;;;4960709;28;20476;-76
2021/11/06 08:58:24;;;;;;;20.73;16.23;;;8.10;95.20;;;;;;4962499;28;20554;-77
2021/11/06 09:00:51;;;;;;;23.45;17.80;;;8.20;95.00;;;;;;4948553;28;20075;-76
2021/11/06 09:03:20;;;;;;;24.00;18.00;;;8.20;94.90;;;;;;4947618;28;20030;-77
2021/11/06 09:05:51;;;;;;;21.27;16.40;;;8.30;95.10;;;;;;4958711;28;20345;-76
2021/11/06 09:08:18;;;;;;;23.45;17.08;;;8.20;94.80;;;;;;4963578;28;20030;-77
2021/11/06 09:10:44;;;;;;;24.10;17.67;;;8.30;94.90;;;;;;4962404;28;20037;-76
2021/11/06 09:13:10;;;;;;;28.27;18.45;;;8.40;94.80;;;;;;4961244;28;20281;-77
2021/11/06 09:15:35;;;;;;;25.67;17.02;;;8.30;94.70;;;;;;4962423;28;20267;-76
2021/11/06 09:18:01;;;;;;;24.75;17.17;;;8.40;94.50;;;;;;4958303;28;20462;-76
2021/11/06 09:20:27;;;;;;;25.10;17.08;;;8.50;94.80;;;;;;4968436;28;20432;-77
2021/11/06 09:22:54;;;;;;;29.30;17.95;;;8.40;94.50;;;;;;4965687;28;20372;-76
2021/11/06 09:25:20;;;;;;;27.30;18.73;;;8.40;94.50;;;;;;4965294;28;20398;-77
2021/11/06 09:27:46;;;;;;;28.23;17.88;;;8.50;94.70;;;;;;4963290;28;20039;-74
2021/11/06 09:30:12;;;;;;;24.65;17.92;;;8.50;94.60;;;;;;4950567;28;20039;-77
2021/11/06 09:32:39;;;;;;;25.30;17.95;;;8.50;94.60;;;;;;4935946;28;20027;-76
2021/11/06 09:35:04;;;;;;;26.35;18.27;;;8.50;94.70;;;;;;4944239;28;20113;-77
2021/11/06 09:37:30;;;;;;;28.58;17.90;;;8.50;94.50;;;;;;4962800;28;20043;-76
2021/11/06 09:39:56;;;;;;;21.63;17.20;;;8.60;94.60;;;;;;4961670;28;20031;-75
2021/11/06 09:42:22;;;;;;;27.23;19.42;;;8.60;94.50;;;;;;4960562;28;20026;-77
2021/11/06 09:44:50;;;;;;;24.70;18.25;;;8.70;94.60;;;;;;4961330;28;20025;-75
2021/11/06 09:47:17;;;;;;;23.60;16.75;;;8.70;94.50;;;;;;4948733;28;20033;-77
2021/11/06 09:49:43;;;;;;;23.48;18.05;;;8.70;94.20;;;;;;4956553;28;20050;-77
2021/11/06 09:52:11;;;;;;;24.05;18.50;;;8.80;94.10;;;;;;4970924;28;20030;-77
2021/11/06 09:54:38;;;;;;;25.90;18.42;;;8.70;94.20;;;;;;4973447;28;20027;-77
2021/11/06 09:57:04;;;;;;;24.90;17.92;;;8.80;94.40;;;;;;4963308;28;20175;-77
2021/11/06 09:59:31;;;;;;;26.52;17.63;;;8.70;94.10;;;;;;4972234;28;20065;-77
2021/11/06 10:01:57;;;;;;;26.05;18.00;;;8.60;94.30;;;;;;4940874;28;20525;-77
2021/11/06 10:04:25;;;;;;;22.38;17.30;;;8.60;94.40;;;;;;4965318;28;20027;-77
2021/11/06 10:06:50;;;;;;;27.05;17.85;;;8.70;94.50;;;;;;4944827;28;20058;-76
2021/11/06 10:09:17;;;;;;;27.85;18.15;;;8.60;94.50;;;;;;4969441;28;20455;-77
2021/11/06 10:11:52;;;;;;;24.35;19.13;;;8.60;94.40;;;;;;4963880;28;20034;-77
2021/11/06 10:14:28;;;;;;;31.08;19.45;;;8.60;94.50;;;;;;4959634;28;20155;-76
2021/11/06 10:16:56;;;;;;;25.77;17.95;;;8.60;94.60;;;;;;4958798;28;20041;-76
2021/11/06 10:19:26;;;;;;;25.73;18.33;;;8.60;94.70;;;;;;4951605;28;20113;-77
2021/11/06 10:22:17;;;;;;;29.42;19.05;;;8.60;94.80;;;;;;4957286;28;20057;-75
2021/11/06 10:24:49;;;;;;;28.50;19.30;;;8.60;94.80;;;;;;4961662;28;20128;-76
2021/11/06 10:27:30;;;;;;;28.98;19.00;;;8.60;94.90;;;;;;4953831;28;20496;-75
2021/11/06 10:30:11;;;;;;;23.38;17.60;;;8.60;94.70;;;;;;4961539;28;20093;-76
2021/11/06 10:32:39;;;;;;;23.20;17.83;;;8.60;94.80;;;;;;4936916;28;20032;-77
2021/11/06 10:35:21;;;;;;;28.75;17.98;;;8.60;94.90;;;;;;4967001;28;20117;-77
2021/11/06 10:37:48;;;;;;;27.50;19.05;;;8.60;94.80;;;;;;4944150;28;20268;-77
2021/11/06 10:40:20;;;;;;;27.85;19.95;;;8.60;95.00;;;;;;4955970;28;20031;-77
2021/11/06 10:42:49;;;;;;;22.80;15.82;;;8.60;95.00;;;;;;4945406;28;20093;-77
2021/11/06 10:45:17;;;;;;;28.70;19.42;;;8.50;95.00;;;;;;4958295;28;20031;-77
2021/11/06 10:48:14;;;;;;;30.17;20.35;;;8.50;95.10;;;;;;4958465;28;20030;-76
2021/11/06 10:51:05;;;;;;;25.63;18.90;;;8.50;95.20;;;;;;4946927;28;20364;-77
2021/11/06 10:53:42;;;;;;;;;;;8.50;95.20;;;;;;4963143;28;20027;-76
2021/11/06 10:56:14;;;;;;;29.40;19.45;;;8.50;95.30;;;;;;4957769;28;19977;-77
2021/11/06 10:58:41;;;;;;;26.85;19.75;;;8.50;95.40;;;;;;4968223;28;20045;-77
2021/11/06 11:01:10;;;;;;;32.13;21.08;;;8.50;95.30;;;;;;4942602;28;20031;-77
2021/11/06 11:03:41;;;;;;;28.48;20.20;;;8.60;95.50;;;;;;4964962;28;20453;-77
2021/11/06 11:06:27;;;;;;;;;;;8.60;95.50;;;;;;4947159;28;20119;-76
2021/11/06 11:08:56;;;;;;;30.73;19.20;;;8.60;95.30;;;;;;4960675;28;20049;-77
2021/11/06 11:11:25;;;;;;;30.60;19.88;;;8.50;95.30;;;;;;4971377;28;20020;-75
2021/11/06 11:13:55;;;;;;;30.42;20.50;;;8.60;95.30;;;;;;4965279;28;20018;-77
2021/11/06 11:16:22;;;;;;;28.80;20.25;;;8.60;95.40;;;;;;4969084;28;20069;-77
2021/11/06 11:18:50;;;;;;;28.90;20.23;;;8.50;95.40;;;;;;4969743;28;20108;-75
2021/11/06 11:21:21;;;;;;;29.77;19.27;;;8.60;95.40;;;;;;4957920;28;20158;-75
2021/11/06 11:23:53;;;;;;;31.17;20.70;;;8.50;95.30;;;;;;4963825;28;20104;-76
2021/11/06 11:26:25;;;;;;;30.67;20.90;;;8.50;95.30;;;;;;4959869;28;20439;-75
2021/11/06 11:28:52;;;;;;;27.90;18.52;;;8.50;95.20;;;;;;4946619;28;20031;-75
2021/11/06 11:31:20;;;;;;;30.23;20.42;;;8.60;95.30;;;;;;4969683;28;20033;-76
2021/11/06 11:33:46;;;;;;;35.90;20.35;;;8.50;95.30;;;;;;4945585;28;22401;-75
2021/11/06 11:36:16;;;;;;;29.60;19.75;;;8.50;95.20;;;;;;4968166;28;20102;-76
2021/11/06 11:38:42;;;;;;;30.90;19.80;;;8.60;95.20;;;;;;4965642;28;20130;-76
2021/11/06 11:41:31;;;;;;;28.08;20.25;;;8.60;95.30;;;;;;4969568;28;20320;-76
2021/11/06 11:44:06;;;;;;;27.50;20.23;;;8.60;95.30;;;;;;4954651;28;20101;-75
2021/11/06 11:46:43;;;;;;;31.38;21.63;;;8.60;95.30;;;;;;4964367;28;20030;-76
2021/11/06 11:49:09;;;;;;;35.00;20.50;;;8.60;95.40;;;;;;4961660;28;20485;-78
2021/11/06 11:51:34;;;;;;;28.80;19.55;;;8.60;95.20;;;;;;4966614;28;20631;-77
2021/11/06 11:54:04;;;;;;;29.52;18.88;;;8.70;95.20;;;;;;4968375;28;20154;-77
2021/11/06 11:56:30;;;;;;;28.27;19.67;;;8.70;95.20;;;;;;4947127;28;20031;-77
2021/11/06 11:58:57;;;;;;;30.65;21.00;;;8.60;95.30;;;;;;4948052;28;20041;-76
2021/11/06 12:01:24;;;;;;;27.55;18.55;;;8.70;95.20;;;;;;4960889;28;20070;-77
2021/11/06 12:03:50;;;;;;;28.17;19.52;;;8.70;95.10;;;;;;4955490;28;20046;-76
2021/11/06 12:06:33;;;;;;;30.70;20.67;;;8.70;95.10;;;;;;4950338;28;20464;-77
2021/11/06 12:09:20;;;;;;;31.65;19.98;;;8.60;95.40;;;;;;4966781;28;20120;-76
2021/11/06 12:11:54;;;;;;;28.92;20.02;;;8.60;95.60;;;;;;4953698;28;20376;-77
2021/11/06 12:14:30;;;;;;;35.22;20.27;;;8.60;95.70;;;;;;4947518;28;20460;-77
2021/11/06 12:17:02;;;;;;;29.38;20.33;;;8.60;95.80;;;;;;4949466;28;20097;-77
2021/11/06 12:19:41;;;;;;;31.23;21.50;;;8.50;95.70;;;;;;4947047;28;20051;-78
2021/11/06 12:22:29;;;;;;;35.13;22.17;;;8.50;95.90;;;;;;4943762;28;20102;-77
2021/11/06 12:25:20;;;;;;;32.05;22.15;;;8.50;96.10;;;;;;4950047;28;20037;-77
2021/11/06 12:27:54;;;;;;;33.60;21.70;;;8.50;96.20;;;;;;4953655;28;20404;-77
2021/11/06 12:30:26;;;;;;;36.65;24.05;;;8.50;96.20;;;;;;4969761;28;20078;-77
2021/11/06 12:32:52;;;;;;;36.72;24.00;;;8.50;96.20;;;;;;4969768;28;20109;-77
2021/11/06 12:35:21;;;;;;;35.65;23.95;;;8.40;96.40;;;;;;4958591;28;20111;-77
2021/11/06 12:37:52;;;;;;;35.40;24.42;;;8.40;96.60;;;;;;4943126;28;20039;-77
2021/11/06 12:40:25;;;;;;;35.40;22.73;;;8.40;96.70;;;;;;4945826;28;20086;-78
2021/11/06 12:43:27;;;;;;;37.17;23.90;;;8.40;96.80;;;;;;4942247;28;20027;-76
2021/11/06 12:45:56;;;;;;;39.28;24.00;;;8.40;96.80;;;;;;4928007;28;20071;-77